sensor_id;sensor_type;location;lat;lon;timestamp;pressure;altitude;pressure_sealevel;temperature;humidity
12763;BME280;6445;52.490;13.378;2023-04-12T00:02:02;-12695.97;;;-146.10;100.00
12763;BME280;6445;52.490;13.378;2023-04-12T00:04:27;-12695.97;;;-146.10;100.00
12763;BME280;6445;52.490;13.378;2023-04-12T00:06:54;-12695.97;;;-146.10;100.00
12763;BME280;6445;52.490;13.378;2023-04-12T00:09:20;-12695.97;;;-146.10;100.00
12763;BME280;6445;52.490;13.378;2023-04-12T00:11:45;-12695.97;;;-146.10;100.00
12763;BME280;6445;52.490;13.378;2023-04-12T00:14:11;-12695.97;;;-146.10;100.00
12763;BME280;6445;52.490;13.378;2023-04-12T00:16:36;-12695.97;;;-146.10;100.00
12763;BME280;6445;52.490;13.378;2023-04-12T00:19:03;-12695.97;;;-146.10;100.00
12763;BME280;6445;52.490;13.378;2023-04-12T00:21:28;-12695.97;;;-146.10;100.00
12763;BME280;6445;52.490;13.378;2023-04-12T00:23:54;-12695.97;;;-146.10;100.00
12763;BME280;6445;52.490;13.378;2023-04-12T00:26:19;-12695.97;;;-146.10;100.00
12763;BME280;6445;52.490;13.378;2023-04-12T00:28:49;-12695.97;;;-146.10;100.00
12763;BME280;6445;52.490;13.378;2023-04-12T00:31:14;-12695.97;;;-146.10;100.00
12763;BME280;6445;52.490;13.378;2023-04-12T00:33:40;-12695.97;;;-146.10;100.00
12763;BME280;6445;52.490;13.378;2023-04-12T00:36:06;-12695.97;;;-146.10;100.00
12763;BME280;6445;52.490;13.378;2023-04-12T00:38:31;-12695.97;;;-146.10;100.00
12763;BME280;6445;52.490;13.378;2023-04-12T00:40:56;-12695.97;;;-146.10;100.00
12763;BME280;6445;52.490;13.378;2023-04-12T00:43:22;-12695.97;;;-146.10;100.00
12763;BME280;6445;52.490;13.378;2023-04-12T00:45:51;-12695.97;;;-146.10;100.00
12763;BME280;6445;52.490;13.378;2023-04-12T00:48:16;-12695.97;;;-146.10;100.00
12763;BME280;6445;52.490;13.378;2023-04-12T00:50:43;-12695.97;;;-146.10;100.00
12763;BME280;6445;52.490;13.378;2023-04-12T00:53:14;-12695.97;;;-146.10;100.00
12763;BME280;6445;52.490;13.378;2023-04-12T00:55:43;-12695.97;;;-146.10;100.00
12763;BME280;6445;52.490;13.378;2023-04-12T00:58:09;-12695.97;;;-146.10;100.00
12763;BME280;6445;52.490;13.378;2023-04-12T01:00:34;-12695.97;;;-146.10;100.00
12763;BME280;6445;52.490;13.378;2023-04-12T01:03:00;-12695.97;;;-146.10;100.00
12763;BME280;6445;52.490;13.378;2023-04-12T01:05:28;-12695.97;;;-146.10;100.00
12763;BME280;6445;52.490;13.378;2023-04-12T01:08:14;-12695.97;;;-146.10;100.00
12763;BME280;6445;52.490;13.378;2023-04-12T01:10:57;-12695.97;;;-146.10;100.00
12763;BME280;6445;52.490;13.378;2023-04-12T01:13:41;-12695.97;;;-146.10;100.00
12763;BME280;6445;52.490;13.378;2023-04-12T01:16:27;-12695.97;;;-146.10;100.00
12763;BME280;6445;52.490;13.378;2023-04-12T01:18:58;-12695.97;;;-146.10;100.00
12763;BME280;6445;52.490;13.378;2023-04-12T01:21:36;-12695.97;;;-146.10;100.00
12763;BME280;6445;52.490;13.378;2023-04-12T01:24:22;-12695.97;;;-146.10;100.00
12763;BME280;6445;52.490;13.378;2023-04-12T01:26:50;-12695.97;;;-146.10;100.00
12763;BME280;6445;52.490;13.378;2023-04-12T01:29:20;-12695.97;;;-146.10;100.00
12763;BME280;6445;52.490;13.378;2023-04-12T01:31:52;-12695.97;;;-146.10;100.00
12763;BME280;6445;52.490;13.378;2023-04-12T01:34:19;-12695.97;;;-146.10;100.00
12763;BME280;6445;52.490;13.378;2023-04-12T01:36:46;-12695.97;;;-146.10;100.00
12763;BME280;6445;52.490;13.378;2023-04-12T01:39:12;-12695.97;;;-146.10;100.00
12763;BME280;6445;52.490;13.378;2023-04-12T01:41:39;-12695.97;;;-146.10;100.00
12763;BME280;6445;52.490;13.378;2023-04-12T01:44:05;-12695.97;;;-146.10;100.00
12763;BME280;6445;52.490;13.378;2023-04-12T01:46:31;-12695.97;;;-146.10;100.00
12763;BME280;6445;52.490;13.378;2023-04-12T01:48:57;-12695.97;;;-146.10;100.00
12763;BME280;6445;52.490;13.378;2023-04-12T01:54:08;-12695.97;;;-146.10;100.00
12763;BME280;6445;52.490;13.378;2023-04-12T01:56:39;-12695.97;;;-146.10;100.00
12763;BME280;6445;52.490;13.378;2023-04-12T01:59:06;-12695.97;;;-146.10;100.00
12763;BME280;6445;52.490;13.378;2023-04-12T02:01:32;-12695.97;;;-146.10;100.00
12763;BME280;6445;52.490;13.378;2023-04-12T02:03:57;-12695.97;;;-146.10;100.00
12763;BME280;6445;52.490;13.378;2023-04-12T02:06:25;-12695.97;;;-146.10;100.00
12763;BME280;6445;52.490;13.378;2023-04-12T02:08:57;-12695.97;;;-146.10;100.00
12763;BME280;6445;52.490;13.378;2023-04-12T02:11:22;-12695.97;;;-146.10;100.00
12763;BME280;6445;52.490;13.378;2023-04-12T02:13:48;-12695.97;;;-146.10;100.00
12763;BME280;6445;52.490;13.378;2023-04-12T02:16:13;-12695.97;;;-146.10;100.00
12763;BME280;6445;52.490;13.378;2023-04-12T02:18:38;-12695.97;;;-146.10;100.00
12763;BME280;6445;52.490;13.378;2023-04-12T02:21:05;-12695.97;;;-146.10;100.00
12763;BME280;6445;52.490;13.378;2023-04-12T02:23:31;-12695.97;;;-146.10;100.00
12763;BME280;6445;52.490;13.378;2023-04-12T02:25:56;-12695.97;;;-146.10;100.00
12763;BME280;6445;52.490;13.378;2023-04-12T02:28:21;-12695.97;;;-146.10;100.00
12763;BME280;6445;52.490;13.378;2023-04-12T02:30:47;-12695.97;;;-146.10;100.00
12763;BME280;6445;52.490;13.378;2023-04-12T02:33:12;-12695.97;;;-146.10;100.00
12763;BME280;6445;52.490;13.378;2023-04-12T02:35:39;-12695.97;;;-146.10;100.00
12763;BME280;6445;52.490;13.378;2023-04-12T02:38:04;-12695.97;;;-146.10;100.00
12763;BME280;6445;52.490;13.378;2023-04-12T02:40:38;-12695.97;;;-146.10;100.00
12763;BME280;6445;52.490;13.378;2023-04-12T02:43:07;-12695.97;;;-146.10;100.00
12763;BME280;6445;52.490;13.378;2023-04-12T02:45:32;-12695.97;;;-146.10;100.00
12763;BME280;6445;52.490;13.378;2023-04-12T02:47:58;-12695.97;;;-146.10;100.00
12763;BME280;6445;52.490;13.378;2023-04-12T02:50:23;-12695.97;;;-146.10;100.00
12763;BME280;6445;52.490;13.378;2023-04-12T02:52:48;-12695.97;;;-146.10;100.00
12763;BME280;6445;52.490;13.378;2023-04-12T02:55:13;-12695.97;;;-146.10;100.00
12763;BME280;6445;52.490;13.378;2023-04-12T02:57:43;-12695.97;;;-146.10;100.00
12763;BME280;6445;52.490;13.378;2023-04-12T03:00:10;-12695.97;;;-146.10;100.00
12763;BME280;6445;52.490;13.378;2023-04-12T03:02:36;-12695.97;;;-146.10;100.00
12763;BME280;6445;52.490;13.378;2023-04-12T03:05:01;-12695.97;;;-146.10;100.00
12763;BME280;6445;52.490;13.378;2023-04-12T03:07:27;-12695.97;;;-146.10;100.00
12763;BME280;6445;52.490;13.378;2023-04-12T03:09:54;-12695.97;;;-146.10;100.00
12763;BME280;6445;52.490;13.378;2023-04-12T03:12:19;-12695.97;;;-146.10;100.00
12763;BME280;6445;52.490;13.378;2023-04-12T03:14:45;-12695.97;;;-146.10;100.00
12763;BME280;6445;52.490;13.378;2023-04-12T03:17:10;-12695.97;;;-146.10;100.00
12763;BME280;6445;52.490;13.378;2023-04-12T03:19:35;-12695.97;;;-146.10;100.00
12763;BME280;6445;52.490;13.378;2023-04-12T03:22:02;-12695.97;;;-146.10;100.00
12763;BME280;6445;52.490;13.378;2023-04-12T03:24:28;-12695.97;;;-146.10;100.00
12763;BME280;6445;52.490;13.378;2023-04-12T03:26:53;-12695.97;;;-146.10;100.00
12763;BME280;6445;52.490;13.378;2023-04-12T03:29:19;-12695.97;;;-146.10;100.00
12763;BME280;6445;52.490;13.378;2023-04-12T03:31:44;-12695.97;;;-146.10;100.00
12763;BME280;6445;52.490;13.378;2023-04-12T03:34:09;-12695.97;;;-146.10;100.00
12763;BME280;6445;52.490;13.378;2023-04-12T03:36:35;-12695.97;;;-146.10;100.00
12763;BME280;6445;52.490;13.378;2023-04-12T03:39:00;-12695.97;;;-146.10;100.00
12763;BME280;6445;52.490;13.378;2023-04-12T03:41:27;-12695.97;;;-146.10;100.00
12763;BME280;6445;52.490;13.378;2023-04-12T03:43:52;-12695.97;;;-146.10;100.00
12763;BME280;6445;52.490;13.378;2023-04-12T03:46:17;-12695.97;;;-146.10;100.00
12763;BME280;6445;52.490;13.378;2023-04-12T03:48:43;-12695.97;;;-146.10;100.00
12763;BME280;6445;52.490;13.378;2023-04-12T03:51:08;-12695.97;;;-146.10;100.00
12763;BME280;6445;52.490;13.378;2023-04-12T03:53:36;-12695.97;;;-146.10;100.00
12763;BME280;6445;52.490;13.378;2023-04-12T03:56:02;-12695.97;;;-146.10;100.00
12763;BME280;6445;52.490;13.378;2023-04-12T03:58:27;-12695.97;;;-146.10;100.00
12763;BME280;6445;52.490;13.378;2023-04-12T04:00:52;-12695.97;;;-146.10;100.00
12763;BME280;6445;52.490;13.378;2023-04-12T04:03:17;-12695.97;;;-146.10;100.00
12763;BME280;6445;52.490;13.378;2023-04-12T04:05:43;-12695.97;;;-146.10;100.00
12763;BME280;6445;52.490;13.378;2023-04-12T04:08:08;-12695.97;;;-146.10;100.00
12763;BME280;6445;52.490;13.378;2023-04-12T04:10:34;-12695.97;;;-146.10;100.00
12763;BME280;6445;52.490;13.378;2023-04-12T04:12:59;-12695.97;;;-146.10;100.00
12763;BME280;6445;52.490;13.378;2023-04-12T04:15:25;-12695.97;;;-146.10;100.00
12763;BME280;6445;52.490;13.378;2023-04-12T04:17:51;-12695.97;;;-146.10;100.00
12763;BME280;6445;52.490;13.378;2023-04-12T04:20:16;-12695.97;;;-146.10;100.00
12763;BME280;6445;52.490;13.378;2023-04-12T04:22:43;-12695.97;;;-146.10;100.00
12763;BME280;6445;52.490;13.378;2023-04-12T04:25:09;-12695.97;;;-146.10;100.00
12763;BME280;6445;52.490;13.378;2023-04-12T04:27:38;-12695.97;;;-146.10;100.00
12763;BME280;6445;52.490;13.378;2023-04-12T04:30:05;-12695.97;;;-146.10;100.00
12763;BME280;6445;52.490;13.378;2023-04-12T04:32:31;-12695.97;;;-146.10;100.00
12763;BME280;6445;52.490;13.378;2023-04-12T04:34:58;-12695.97;;;-146.10;100.00
12763;BME280;6445;52.490;13.378;2023-04-12T04:37:30;-12695.97;;;-146.10;100.00
12763;BME280;6445;52.490;13.378;2023-04-12T04:39:55;-12695.97;;;-146.10;100.00
12763;BME280;6445;52.490;13.378;2023-04-12T04:42:22;-12695.97;;;-146.10;100.00
12763;BME280;6445;52.490;13.378;2023-04-12T04:44:48;-12695.97;;;-146.10;100.00
12763;BME280;6445;52.490;13.378;2023-04-12T04:47:15;-12695.97;;;-146.10;100.00
12763;BME280;6445;52.490;13.378;2023-04-12T04:49:42;-12695.97;;;-146.10;100.00
12763;BME280;6445;52.490;13.378;2023-04-12T04:52:07;-12695.97;;;-146.10;100.00
12763;BME280;6445;52.490;13.378;2023-04-12T04:54:33;-12695.97;;;-146.10;100.00
12763;BME280;6445;52.490;13.378;2023-04-12T04:57:00;-12695.97;;;-146.10;100.00
12763;BME280;6445;52.490;13.378;2023-04-12T04:59:25;-12695.97;;;-146.10;100.00
12763;BME280;6445;52.490;13.378;2023-04-12T05:01:50;-12695.97;;;-146.10;100.00
12763;BME280;6445;52.490;13.378;2023-04-12T05:04:16;-12695.97;;;-146.10;100.00
12763;BME280;6445;52.490;13.378;2023-04-12T05:06:41;-12695.97;;;-146.10;100.00
12763;BME280;6445;52.490;13.378;2023-04-12T05:09:07;-11938.88;;;-146.10;100.00
12763;BME280;6445;52.490;13.378;2023-04-12T05:11:32;-586.97;;;-146.10;100.00
12763;BME280;6445;52.490;13.378;2023-04-12T05:13:57;7759.09;;;-146.10;100.00
12763;BME280;6445;52.490;13.378;2023-04-12T05:16:23;26794.50;;;-146.10;100.00
12763;BME280;6445;52.490;13.378;2023-04-12T05:18:48;40962.66;;;-146.10;99.13
12763;BME280;6445;52.490;13.378;2023-04-12T05:21:13;44517.22;;;-146.10;97.93
12763;BME280;6445;52.490;13.378;2023-04-12T05:23:43;46690.22;;;-146.10;95.96
12763;BME280;6445;52.490;13.378;2023-04-12T05:26:10;49983.97;;;-146.10;86.84
12763;BME280;6445;52.490;13.378;2023-04-12T05:28:35;50813.84;;;-146.10;81.97
12763;BME280;6445;52.490;13.378;2023-04-12T05:31:00;50953.84;;;-146.10;84.51
12763;BME280;6445;52.490;13.378;2023-04-12T05:33:25;51491.88;;;-146.10;76.08
12763;BME280;6445;52.490;13.378;2023-04-12T05:35:51;51335.84;;;-146.10;79.85
12763;BME280;6445;52.490;13.378;2023-04-12T05:38:16;51701.91;;;-146.10;69.81
12763;BME280;6445;52.490;13.378;2023-04-12T05:40:41;51739.91;;;-146.10;68.05
12763;BME280;6445;52.490;13.378;2023-04-12T05:43:08;51815.94;;;-146.10;65.02
12763;BME280;6445;52.490;13.378;2023-04-12T05:45:37;51829.94;;;-146.10;64.88
12763;BME280;6445;52.490;13.378;2023-04-12T05:48:02;51855.94;;;-146.10;63.07
12763;BME280;6445;52.490;13.378;2023-04-12T05:50:27;51809.94;;;-146.10;67.27
12763;BME280;6445;52.490;13.378;2023-04-12T05:52:54;51851.94;;;-146.10;62.85
12763;BME280;6445;52.490;13.378;2023-04-12T05:55:19;51901.94;;;-146.10;60.29
12763;BME280;6445;52.490;13.378;2023-04-12T05:57:45;51871.94;;;-146.10;62.83
12763;BME280;6445;52.490;13.378;2023-04-12T06:00:11;51889.94;;;-146.10;61.35
12763;BME280;6445;52.490;13.378;2023-04-12T06:02:44;51891.94;;;-146.10;62.69
12763;BME280;6445;52.490;13.378;2023-04-12T06:05:10;51901.94;;;-146.10;61.41
12763;BME280;6445;52.490;13.378;2023-04-12T06:07:36;51915.94;;;-146.10;58.68
12763;BME280;6445;52.490;13.378;2023-04-12T06:10:03;51967.97;;;-146.10;55.34
12763;BME280;6445;52.490;13.378;2023-04-12T06:12:29;51945.97;;;-146.10;55.51
12763;BME280;6445;52.490;13.378;2023-04-12T06:14:54;51987.97;;;-146.10;53.90
12763;BME280;6445;52.490;13.378;2023-04-12T06:17:19;52003.97;;;-146.10;51.25
12763;BME280;6445;52.490;13.378;2023-04-12T06:19:45;52035.97;;;-146.10;45.62
12763;BME280;6445;52.490;13.378;2023-04-12T06:22:10;52047.97;;;-146.10;44.67
12763;BME280;6445;52.490;13.378;2023-04-12T06:24:35;52078.00;;;-146.10;42.80
12763;BME280;6445;52.490;13.378;2023-04-12T06:27:00;52067.97;;;-146.10;43.80
12763;BME280;6445;52.490;13.378;2023-04-12T06:29:26;52003.97;;;-146.10;48.88
12763;BME280;6445;52.490;13.378;2023-04-12T06:31:51;51995.97;;;-146.10;49.90
12763;BME280;6445;52.490;13.378;2023-04-12T06:34:16;52005.97;;;-146.10;51.40
12763;BME280;6445;52.490;13.378;2023-04-12T06:36:41;52013.97;;;-146.10;46.92
12763;BME280;6445;52.490;13.378;2023-04-12T06:39:08;52045.97;;;-146.10;42.58
12763;BME280;6445;52.490;13.378;2023-04-12T06:41:33;52021.97;;;-146.10;45.59
12763;BME280;6445;52.490;13.378;2023-04-12T06:43:58;52082.00;;;-146.10;41.77
12763;BME280;6445;52.490;13.378;2023-04-12T06:46:25;52074.00;;;-146.10;42.39
12763;BME280;6445;52.490;13.378;2023-04-12T06:48:51;52136.00;;;-146.10;37.85
12763;BME280;6445;52.490;13.378;2023-04-12T06:51:16;52164.00;;;-146.10;37.74
12763;BME280;6445;52.490;13.378;2023-04-12T06:53:42;52076.00;;;-146.10;38.55
12763;BME280;6445;52.490;13.378;2023-04-12T06:56:07;52092.00;;;-146.10;39.40
12763;BME280;6445;52.490;13.378;2023-04-12T06:58:32;52138.00;;;-146.10;38.71
12763;BME280;6445;52.490;13.378;2023-04-12T07:01:07;52124.00;;;-146.10;39.26
12763;BME280;6445;52.490;13.378;2023-04-12T07:03:34;52116.00;;;-146.10;39.23
12763;BME280;6445;52.490;13.378;2023-04-12T07:06:00;52128.00;;;-146.10;37.83
12763;BME280;6445;52.490;13.378;2023-04-12T07:08:27;52140.00;;;-146.10;37.07
12763;BME280;6445;52.490;13.378;2023-04-12T07:10:53;52112.00;;;-146.10;39.01
12763;BME280;6445;52.490;13.378;2023-04-12T07:13:18;52096.00;;;-146.10;36.38
12763;BME280;6445;52.490;13.378;2023-04-12T07:15:44;52108.00;;;-146.10;36.95
12763;BME280;6445;52.490;13.378;2023-04-12T07:18:09;52080.00;;;-146.10;37.65
12763;BME280;6445;52.490;13.378;2023-04-12T07:20:34;52110.00;;;-146.10;37.54
12763;BME280;6445;52.490;13.378;2023-04-12T07:22:59;52146.00;;;-146.10;35.83
12763;BME280;6445;52.490;13.378;2023-04-12T07:25:25;52138.00;;;-146.10;35.50
12763;BME280;6445;52.490;13.378;2023-04-12T07:27:50;52124.00;;;-146.10;35.78
12763;BME280;6445;52.490;13.378;2023-04-12T07:30:15;52057.97;;;-146.10;38.55
12763;BME280;6445;52.490;13.378;2023-04-12T07:32:40;52120.00;;;-146.10;36.33
12763;BME280;6445;52.490;13.378;2023-04-12T07:35:06;52124.00;;;-146.10;36.24
12763;BME280;6445;52.490;13.378;2023-04-12T07:37:31;52142.00;;;-146.10;36.24
12763;BME280;6445;52.490;13.378;2023-04-12T07:39:57;52170.00;;;-146.10;35.24
12763;BME280;6445;52.490;13.378;2023-04-12T07:42:22;52168.00;;;-146.10;34.71
12763;BME280;6445;52.490;13.378;2023-04-12T07:44:47;52134.00;;;-146.10;35.27
12763;BME280;6445;52.490;13.378;2023-04-12T07:47:13;52110.00;;;-146.10;35.31
12763;BME280;6445;52.490;13.378;2023-04-12T07:49:38;52128.00;;;-146.10;35.83
12763;BME280;6445;52.490;13.378;2023-04-12T07:52:03;52144.00;;;-146.10;34.25
12763;BME280;6445;52.490;13.378;2023-04-12T07:54:29;52172.00;;;-146.10;34.20
12763;BME280;6445;52.490;13.378;2023-04-12T07:57:01;52194.03;;;-146.10;33.88
12763;BME280;6445;52.490;13.378;2023-04-12T07:59:27;52144.00;;;-146.10;36.22
12763;BME280;6445;52.490;13.378;2023-04-12T08:01:53;52170.00;;;-146.10;34.50
12763;BME280;6445;52.490;13.378;2023-04-12T08:04:18;52250.03;;;-146.10;32.90
12763;BME280;6445;52.490;13.378;2023-04-12T08:06:43;52222.03;;;-146.10;32.95
12763;BME280;6445;52.490;13.378;2023-04-12T08:09:08;52216.03;;;-146.10;32.67
12763;BME280;6445;52.490;13.378;2023-04-12T08:11:34;52194.03;;;-146.10;32.31
12763;BME280;6445;52.490;13.378;2023-04-12T08:13:59;52210.03;;;-146.10;31.88
12763;BME280;6445;52.490;13.378;2023-04-12T08:16:25;52148.00;;;-146.10;33.43
12763;BME280;6445;52.490;13.378;2023-04-12T08:18:51;52162.00;;;-146.10;33.30
12763;BME280;6445;52.490;13.378;2023-04-12T08:21:16;52164.00;;;-146.10;32.97
12763;BME280;6445;52.490;13.378;2023-04-12T08:23:41;52196.03;;;-146.10;31.85
12763;BME280;6445;52.490;13.378;2023-04-12T08:26:07;52212.03;;;-146.10;31.87
12763;BME280;6445;52.490;13.378;2023-04-12T08:28:33;52334.06;;;-146.10;29.87
12763;BME280;6445;52.490;13.378;2023-04-12T08:30:58;52222.03;;;-146.10;30.30
12763;BME280;6445;52.490;13.378;2023-04-12T08:33:24;52176.00;;;-146.10;30.21
12763;BME280;6445;52.490;13.378;2023-04-12T08:35:49;52212.03;;;-146.10;30.68
12763;BME280;6445;52.490;13.378;2023-04-12T08:38:14;52226.03;;;-146.10;30.24
12763;BME280;6445;52.490;13.378;2023-04-12T08:40:41;52204.03;;;-146.10;30.32
12763;BME280;6445;52.490;13.378;2023-04-12T08:43:07;52220.03;;;-146.10;30.53
12763;BME280;6445;52.490;13.378;2023-04-12T08:45:34;52336.06;;;-146.10;28.88
12763;BME280;6445;52.490;13.378;2023-04-12T08:48:01;52242.03;;;-146.10;29.68
12763;BME280;6445;52.490;13.378;2023-04-12T08:50:27;52218.03;;;-146.10;29.90
12763;BME280;6445;52.490;13.378;2023-04-12T08:52:53;52208.03;;;-146.10;30.12
12763;BME280;6445;52.490;13.378;2023-04-12T08:55:20;52224.03;;;-146.10;30.05
12763;BME280;6445;52.490;13.378;2023-04-12T08:57:46;52208.03;;;-146.10;30.31
12763;BME280;6445;52.490;13.378;2023-04-12T09:00:12;52220.03;;;-146.10;28.77
12763;BME280;6445;52.490;13.378;2023-04-12T09:02:38;52250.03;;;-146.10;29.25
12763;BME280;6445;52.490;13.378;2023-04-12T09:05:07;52218.03;;;-146.10;28.75
12763;BME280;6445;52.490;13.378;2023-04-12T09:07:34;52186.03;;;-146.10;29.55
12763;BME280;6445;52.490;13.378;2023-04-12T09:09:59;52268.03;;;-146.10;28.57
12763;BME280;6445;52.490;13.378;2023-04-12T09:12:25;52268.03;;;-146.10;28.53
12763;BME280;6445;52.490;13.378;2023-04-12T09:15:07;52212.03;;;-146.10;29.02
12763;BME280;6445;52.490;13.378;2023-04-12T09:17:33;52244.03;;;-146.10;28.47
12763;BME280;6445;52.490;13.378;2023-04-12T09:22:41;52156.00;;;-146.10;29.91
12763;BME280;6445;52.490;13.378;2023-04-12T09:25:14;52178.00;;;-146.10;30.03
12763;BME280;6445;52.490;13.378;2023-04-12T09:27:51;52244.03;;;-146.10;28.84
12763;BME280;6445;52.490;13.378;2023-04-12T09:30:17;52202.03;;;-146.10;29.12
12763;BME280;6445;52.490;13.378;2023-04-12T09:32:43;52206.03;;;-146.10;29.31
12763;BME280;6445;52.490;13.378;2023-04-12T09:35:08;52224.03;;;-146.10;28.69
12763;BME280;6445;52.490;13.378;2023-04-12T09:37:34;52108.00;;;-146.10;30.12
12763;BME280;6445;52.490;13.378;2023-04-12T09:40:00;52188.03;;;-146.10;29.73
12763;BME280;6445;52.490;13.378;2023-04-12T09:42:26;52276.03;;;-146.10;28.40
12763;BME280;6445;52.490;13.378;2023-04-12T09:44:52;52288.06;;;-146.10;28.10
12763;BME280;6445;52.490;13.378;2023-04-12T09:47:18;52276.03;;;-146.10;28.28
12763;BME280;6445;52.490;13.378;2023-04-12T09:49:43;52314.06;;;-146.10;27.16
12763;BME280;6445;52.490;13.378;2023-04-12T09:52:13;52286.03;;;-146.10;27.39
12763;BME280;6445;52.490;13.378;2023-04-12T09:54:46;52212.03;;;-146.10;28.64
12763;BME280;6445;52.490;13.378;2023-04-12T09:57:16;52230.03;;;-146.10;28.04
12763;BME280;6445;52.490;13.378;2023-04-12T09:59:43;52222.03;;;-146.10;28.11
12763;BME280;6445;52.490;13.378;2023-04-12T10:02:17;52262.03;;;-146.10;27.02
12763;BME280;6445;52.490;13.378;2023-04-12T10:04:43;52302.06;;;-146.10;26.77
12763;BME280;6445;52.490;13.378;2023-04-12T10:07:10;52218.03;;;-146.10;27.48
12763;BME280;6445;52.490;13.378;2023-04-12T10:09:37;52214.03;;;-146.10;27.61
12763;BME280;6445;52.490;13.378;2023-04-12T10:12:03;52292.06;;;-146.10;26.47
12763;BME280;6445;52.490;13.378;2023-04-12T10:14:29;52284.03;;;-146.10;26.89
12763;BME280;6445;52.490;13.378;2023-04-12T10:17:00;52280.03;;;-146.10;26.83
12763;BME280;6445;52.490;13.378;2023-04-12T10:19:27;52250.03;;;-146.10;27.43
12763;BME280;6445;52.490;13.378;2023-04-12T10:21:53;52356.06;;;-146.10;26.04
12763;BME280;6445;52.490;13.378;2023-04-12T10:24:24;52292.06;;;-146.10;26.04
12763;BME280;6445;52.490;13.378;2023-04-12T10:26:50;52358.06;;;-146.10;25.57
12763;BME280;6445;52.490;13.378;2023-04-12T10:31:49;52224.03;;;-146.10;27.24
12763;BME280;6445;52.490;13.378;2023-04-12T10:34:15;52232.03;;;-146.10;27.19
12763;BME280;6445;52.490;13.378;2023-04-12T10:36:54;52244.03;;;-146.10;26.70
12763;BME280;6445;52.490;13.378;2023-04-12T10:39:42;52220.03;;;-146.10;27.41
12763;BME280;6445;52.490;13.378;2023-04-12T10:44:43;52196.03;;;-146.10;27.58
12763;BME280;6445;52.490;13.378;2023-04-12T10:47:09;52224.03;;;-146.10;27.67
12763;BME280;6445;52.490;13.378;2023-04-12T10:49:35;52264.03;;;-146.10;26.60
12763;BME280;6445;52.490;13.378;2023-04-12T10:56:52;52194.03;;;-146.10;27.39
12763;BME280;6445;52.490;13.378;2023-04-12T10:59:17;52192.03;;;-146.10;27.91
12763;BME280;6445;52.490;13.378;2023-04-12T11:02:09;52184.03;;;-146.10;28.36
12763;BME280;6445;52.490;13.378;2023-04-12T11:04:35;52292.06;;;-146.10;26.88
12763;BME280;6445;52.490;13.378;2023-04-12T11:07:08;52170.00;;;-146.10;28.11
12763;BME280;6445;52.490;13.378;2023-04-12T11:09:38;52210.03;;;-146.10;28.21
12763;BME280;6445;52.490;13.378;2023-04-12T11:19:33;52156.00;;;-146.10;28.15
12763;BME280;6445;52.490;13.378;2023-04-12T11:22:10;52136.00;;;-146.10;29.20
12763;BME280;6445;52.490;13.378;2023-04-12T11:24:46;52134.00;;;-146.10;29.11
12763;BME280;6445;52.490;13.378;2023-04-12T11:27:12;52158.00;;;-146.10;28.38
12763;BME280;6445;52.490;13.378;2023-04-12T11:29:37;52194.03;;;-146.10;28.49
12763;BME280;6445;52.490;13.378;2023-04-12T11:32:04;52204.03;;;-146.10;28.11
12763;BME280;6445;52.490;13.378;2023-04-12T11:34:34;52220.03;;;-146.10;27.42
12763;BME280;6445;52.490;13.378;2023-04-12T11:37:02;52308.06;;;-146.10;26.18
12763;BME280;6445;52.490;13.378;2023-04-12T11:39:32;52252.03;;;-146.10;27.40
12763;BME280;6445;52.490;13.378;2023-04-12T11:41:57;52294.06;;;-146.10;26.79
12763;BME280;6445;52.490;13.378;2023-04-12T11:44:23;52250.03;;;-146.10;27.24
12763;BME280;6445;52.490;13.378;2023-04-12T11:46:48;52214.03;;;-146.10;27.31
12763;BME280;6445;52.490;13.378;2023-04-12T11:49:14;52266.03;;;-146.10;27.03
12763;BME280;6445;52.490;13.378;2023-04-12T11:51:43;52234.03;;;-146.10;27.18
12763;BME280;6445;52.490;13.378;2023-04-12T11:54:09;52192.03;;;-146.10;27.37
12763;BME280;6445;52.490;13.378;2023-04-12T11:56:35;52140.00;;;-146.10;28.42
12763;BME280;6445;52.490;13.378;2023-04-12T11:59:01;52130.00;;;-146.10;28.29
12763;BME280;6445;52.490;13.378;2023-04-12T12:01:26;52055.97;;;-146.10;30.05
12763;BME280;6445;52.490;13.378;2023-04-12T12:03:53;52061.97;;;-146.10;30.14
12763;BME280;6445;52.490;13.378;2023-04-12T12:06:19;52065.97;;;-146.10;30.41
12763;BME280;6445;52.490;13.378;2023-04-12T12:08:45;52074.00;;;-146.10;29.94
12763;BME280;6445;52.490;13.378;2023-04-12T12:11:10;52063.97;;;-146.10;30.75
12763;BME280;6445;52.490;13.378;2023-04-12T12:13:47;52076.00;;;-146.10;30.29
12763;BME280;6445;52.490;13.378;2023-04-12T12:16:12;52074.00;;;-146.10;30.41
12763;BME280;6445;52.490;13.378;2023-04-12T12:18:39;52027.97;;;-146.10;30.67
12763;BME280;6445;52.490;13.378;2023-04-12T12:21:07;52067.97;;;-146.10;31.14
12763;BME280;6445;52.490;13.378;2023-04-12T12:23:33;52021.97;;;-146.10;31.37
12763;BME280;6445;52.490;13.378;2023-04-12T12:26:00;52039.97;;;-146.10;30.91
12763;BME280;6445;52.490;13.378;2023-04-12T12:28:27;52039.97;;;-146.10;30.91
12763;BME280;6445;52.490;13.378;2023-04-12T12:30:53;52084.00;;;-146.10;30.69
12763;BME280;6445;52.490;13.378;2023-04-12T12:33:19;52049.97;;;-146.10;30.36
12763;BME280;6445;52.490;13.378;2023-04-12T12:35:44;52070.00;;;-146.10;30.59
12763;BME280;6445;52.490;13.378;2023-04-12T12:38:10;52059.97;;;-146.10;30.63
12763;BME280;6445;52.490;13.378;2023-04-12T12:40:35;52086.00;;;-146.10;31.32
12763;BME280;6445;52.490;13.378;2023-04-12T12:43:01;52059.97;;;-146.10;31.30
12763;BME280;6445;52.490;13.378;2023-04-12T12:45:27;52055.97;;;-146.10;31.65
12763;BME280;6445;52.490;13.378;2023-04-12T12:48:00;52019.97;;;-146.10;31.35
12763;BME280;6445;52.490;13.378;2023-04-12T12:50:29;52031.97;;;-146.10;31.97
12763;BME280;6445;52.490;13.378;2023-04-12T12:53:04;51999.97;;;-146.10;31.83
12763;BME280;6445;52.490;13.378;2023-04-12T12:55:32;52023.97;;;-146.10;32.72